Time;durP1;ratioP1;P1;durP2;ratioP2;P2;SDS_P1;SDS_P2;PMS_P1;PMS_P2;Temp;Humidity;BMP_temperature;BMP_pressure;BME280_temperature;BME280_humidity;BME280_pressure;Samples;Min_cycle;Max_cycle;Signal;HPM_P1;HPM_P2
2023/01/24 00:01:29;;;;;;;15.35;10.98;;;;;;;2.67;84.84;103967.72;6200351;23;20090;-76
2023/01/24 00:03:56;;;;;;;13.02;10.07;;;;;;;2.66;84.46;103962.75;6170638;23;20022;-77
2023/01/24 00:06:22;;;;;;;11.73;9.52;;;;;;;2.65;84.46;103963.84;6197651;23;20475;-76
2023/01/24 00:08:49;;;;;;;14.73;9.88;;;;;;;2.65;84.29;103969.09;6165891;23;20041;-76
2023/01/24 00:11:15;;;;;;;14.35;10.32;;;;;;;2.65;84.43;103966.47;6190058;23;20022;-77
2023/01/24 00:13:42;;;;;;;13.45;10.07;;;;;;;2.65;84.17;103958.59;6189620;23;20490;-76
2023/01/24 00:16:15;;;;;;;11.77;9.23;;;;;;;2.64;84.42;103963.06;6161747;23;20025;-78
2023/01/24 00:18:42;;;;;;;13.18;10.02;;;;;;;2.63;84.42;103958.13;6138548;23;20017;-77
2023/01/24 00:21:16;;;;;;;12.85;9.50;;;;;;;2.64;84.19;103959.66;6189001;23;20013;-77
2023/01/24 00:23:45;;;;;;;13.02;9.25;;;;;;;2.63;84.13;103956.25;6189810;23;20438;-78
2023/01/24 00:26:13;;;;;;;12.75;9.85;;;;;;;2.63;84.23;103952.84;6189028;23;20519;-78
2023/01/24 00:28:42;;;;;;;14.10;10.65;;;;;;;2.63;84.48;103955.47;6189501;23;20021;-78
2023/01/24 00:31:09;;;;;;;15.95;10.73;;;;;;;2.63;84.42;103955.47;6188565;23;20307;-77
2023/01/24 00:33:35;;;;;;;15.52;10.15;;;;;;;2.62;84.61;103954.72;6162621;23;20022;-78
2023/01/24 00:36:02;;;;;;;15.93;10.27;;;;;;;2.64;84.51;103947.28;6162274;23;20030;-78
2023/01/24 00:38:31;;;;;;;14.93;10.75;;;;;;;2.64;84.63;103955.19;6162763;23;20022;-78
2023/01/24 00:40:58;;;;;;;16.02;11.10;;;;;;;2.62;84.40;103949.44;6163217;23;20020;-78
2023/01/24 00:43:26;;;;;;;14.63;10.10;;;;;;;2.63;84.46;103952.84;6138774;23;20029;-78
2023/01/24 00:45:53;;;;;;;16.80;12.00;;;;;;;2.61;84.76;103958.41;6162582;23;20045;-77
2023/01/24 00:48:21;;;;;;;15.45;11.32;;;;;;;2.61;84.82;103958.41;6138442;23;20022;-78
2023/01/24 00:50:47;;;;;;;16.80;11.23;;;;;;;2.59;84.65;103949.28;6173995;23;20026;-76
2023/01/24 00:53:14;;;;;;;17.30;11.95;;;;;;;2.57;84.47;103952.22;6187916;23;20024;-77
2023/01/24 00:55:43;;;;;;;17.75;12.30;;;;;;;2.58;84.74;103945.09;6163183;23;20133;-77
2023/01/24 00:58:12;;;;;;;17.42;11.98;;;;;;;2.59;84.79;103938.75;6186973;23;20022;-77
2023/01/24 01:00:39;;;;;;;16.17;11.93;;;;;;;2.59;84.97;103949.28;6188686;23;20014;-76
2023/01/24 01:03:18;;;;;;;18.20;12.18;;;;;;;2.60;85.09;103943.72;6188569;23;20088;-77
2023/01/24 01:05:45;;;;;;;16.40;11.73;;;;;;;2.59;85.11;103933.50;6189321;23;20022;-77
2023/01/24 01:08:12;;;;;;;14.27;10.55;;;;;;;2.60;85.10;103932.41;6188620;23;20018;-77
2023/01/24 01:10:39;;;;;;;16.02;11.32;;;;;;;2.56;84.96;103934.88;6189058;23;20014;-77
2023/01/24 01:13:06;;;;;;;18.17;11.45;;;;;;;2.57;84.91;103931.19;6186859;23;20010;-77
2023/01/24 01:15:33;;;;;;;15.45;10.93;;;;;;;2.55;85.23;103928.06;6188733;23;20080;-77
2023/01/24 01:17:59;;;;;;;18.20;12.35;;;;;;;2.54;85.19;103938.91;6189104;23;20092;-77
2023/01/24 01:20:26;;;;;;;17.63;11.88;;;;;;;2.55;85.21;103935.97;6188958;23;20200;-76
2023/01/24 01:22:53;;;;;;;17.83;11.55;;;;;;;2.55;85.12;103929.94;6188763;23;20020;-77
2023/01/24 01:25:20;;;;;;;16.92;10.48;;;;;;;2.55;85.11;103933.34;6188663;23;20427;-77
2023/01/24 01:27:46;;;;;;;15.48;10.88;;;;;;;2.54;84.98;103931.78;6188572;23;20013;-77
2023/01/24 01:30:13;;;;;;;17.75;11.85;;;;;;;2.52;85.12;103928.69;6188431;23;20048;-77
2023/01/24 01:32:40;;;;;;;17.08;11.20;;;;;;;2.52;84.96;103938.44;6188997;23;20092;-77
2023/01/24 01:35:07;;;;;;;18.02;11.90;;;;;;;2.49;85.12;103931.94;6187944;23;20021;-76
2023/01/24 01:37:33;;;;;;;14.50;10.02;;;;;;;2.50;85.09;103927.44;6188916;23;20022;-76
2023/01/24 01:40:01;;;;;;;14.02;10.25;;;;;;;2.49;84.97;103934.56;6188709;23;20464;-77
2023/01/24 01:42:40;;;;;;;15.23;10.57;;;;;;;2.50;85.12;103932.69;6188364;23;20014;-77
2023/01/24 01:45:29;;;;;;;13.50;9.60;;;;;;;2.50;85.09;103922.19;6188625;23;20427;-77
2023/01/24 01:47:56;;;;;;;14.75;10.60;;;;;;;2.49;85.03;103925.88;6188427;23;20021;-77
2023/01/24 01:50:29;;;;;;;15.75;10.40;;;;;;;2.50;84.94;103922.19;6188033;23;20026;-77
2023/01/24 01:52:57;;;;;;;15.80;10.75;;;;;;;2.50;85.05;103924.81;6188295;23;20028;-77
2023/01/24 01:55:31;;;;;;;17.83;10.32;;;;;;;2.48;85.00;103919.84;6189675;23;20017;-77
2023/01/24 01:57:58;;;;;;;14.38;10.25;;;;;;;2.48;84.89;103922.50;6187656;23;20423;-77
2023/01/24 02:00:27;;;;;;;13.88;10.02;;;;;;;2.49;84.86;103928.53;6189946;23;20045;-77
2023/01/24 02:03:37;;;;;;;11.98;8.82;;;;;;;2.47;84.71;103926.19;6163421;23;20556;-77
2023/01/24 02:05:48;;;;;;;15.35;9.32;;;;;;;2.46;84.80;103927.28;6189731;23;20068;-77
2023/01/24 02:08:20;;;;;;;14.63;9.48;;;;;;;2.47;84.64;103922.78;6189531;23;20487;-77
2023/01/24 02:13:39;;;;;;;15.40;10.32;;;;;;;2.44;84.32;103924.19;6187782;23;20025;-77
2023/01/24 02:16:06;;;;;;;16.23;10.13;;;;;;;2.45;84.49;103920.47;6162925;23;20053;-76
2023/01/24 02:18:36;;;;;;;12.07;9.38;;;;;;;2.46;84.64;103921.25;6188113;23;20045;-77
2023/01/24 02:21:07;;;;;;;14.77;9.63;;;;;;;2.46;84.75;103927.28;6189215;23;20024;-77
2023/01/24 02:23:52;;;;;;;14.43;9.77;;;;;;;2.46;84.71;103916.75;6188574;23;20014;-77
2023/01/24 02:26:27;;;;;;;13.38;9.18;;;;;;;2.46;84.67;103916.75;6187271;23;20471;-77
2023/01/24 02:28:58;;;;;;;14.90;9.80;;;;;;;2.46;84.59;103924.66;6189626;23;20400;-77
2023/01/24 02:31:25;;;;;;;14.10;9.13;;;;;;;2.45;84.84;103925.72;6188216;23;20089;-77
2023/01/24 02:33:52;;;;;;;13.05;9.82;;;;;;;2.44;84.87;103926.81;6189677;23;20171;-77
2023/01/24 02:36:30;;;;;;;17.02;10.27;;;;;;;2.45;84.90;103922.31;6189479;23;20056;-77
2023/01/24 02:39:03;;;;;;;19.02;10.25;;;;;;;2.42;84.99;103922.94;6187598;23;20096;-76
2023/01/24 02:41:48;;;;;;;13.52;10.30;;;;;;;2.43;85.13;103921.84;6187770;23;20018;-77
2023/01/24 02:44:22;;;;;;;14.68;10.40;;;;;;;2.41;85.06;103924.00;6189499;23;20045;-77
2023/01/24 02:46:48;;;;;;;13.48;9.65;;;;;;;2.41;85.28;103922.16;6189777;23;20018;-77
2023/01/24 02:49:15;;;;;;;14.40;10.02;;;;;;;2.41;85.06;103921.38;6187574;23;20029;-77
2023/01/24 02:54:26;;;;;;;15.55;10.48;;;;;;;2.38;85.18;103924.66;6163250;23;20044;-76
2023/01/24 02:59:38;;;;;;;16.17;10.70;;;;;;;2.36;85.51;103913.66;6189975;23;20411;-79
2023/01/24 03:02:04;;;;;;;17.83;11.20;;;;;;;2.35;85.49;103915.50;6162290;23;20108;-78
2023/01/24 03:04:31;;;;;;;18.00;11.30;;;;;;;2.36;85.92;103921.53;6162719;23;20022;-78
2023/01/24 03:06:58;;;;;;;17.10;11.25;;;;;;;2.37;85.85;103915.97;6162490;23;20077;-78
2023/01/24 03:09:38;;;;;;;16.02;11.65;;;;;;;2.37;86.14;103912.59;6188709;23;20485;-78
2023/01/24 03:34:32;;;;;;;12.88;9.38;;;;;;;2.25;86.32;103903.41;6162603;23;20325;-77
2023/01/24 03:37:00;;;;;;;16.48;10.48;;;;;;;2.24;86.42;103901.88;6189018;23;20426;-76
2023/01/24 03:42:12;;;;;;;17.17;11.25;;;;;;;2.24;86.53;103909.75;6188790;23;20022;-76
2023/01/24 03:44:39;;;;;;;14.60;9.93;;;;;;;2.23;86.55;103908.19;6162434;23;20495;-77
2023/01/24 03:47:05;;;;;;;14.02;9.60;;;;;;;2.23;86.46;103917.94;6137474;23;20018;-76
2023/01/24 03:52:29;;;;;;;13.05;9.40;;;;;;;2.21;86.43;103917.47;6189113;23;20020;-78
2023/01/24 03:55:00;;;;;;;14.32;9.38;;;;;;;2.18;86.37;103920.69;6161904;23;20014;-76
2023/01/24 03:57:29;;;;;;;14.30;10.25;;;;;;;2.15;86.23;103922.09;6162628;23;20049;-77
2023/01/24 04:00:00;;;;;;;15.80;10.63;;;;;;;2.14;86.14;103917.91;6162714;23;20017;-76
2023/01/24 04:02:26;;;;;;;17.50;11.25;;;;;;;2.13;86.04;103926.09;6163349;23;20445;-77
2023/01/24 04:07:39;;;;;;;15.57;10.13;;;;;;;2.09;86.45;103917.25;6162541;23;20041;-77
2023/01/24 04:10:08;;;;;;;14.95;10.07;;;;;;;2.09;86.22;103922.53;6161241;23;20033;-79
2023/01/24 04:12:40;;;;;;;15.02;10.73;;;;;;;2.07;86.04;103920.19;6162972;23;20014;-77
2023/01/24 04:15:08;;;;;;;14.98;10.30;;;;;;;2.08;86.47;103916.50;6161851;23;20028;-77
2023/01/24 04:17:35;;;;;;;16.65;11.05;;;;;;;2.09;86.47;103917.25;6189082;23;20028;-77
2023/01/24 04:20:04;;;;;;;15.23;10.65;;;;;;;2.09;86.57;103917.25;6161700;23;20480;-77
2023/01/24 04:22:31;;;;;;;16.30;10.93;;;;;;;2.06;86.59;103918.66;6162197;23;20049;-77
2023/01/24 04:25:00;;;;;;;15.80;11.55;;;;;;;2.09;86.67;103925.94;6162014;23;20017;-77
2023/01/24 04:27:31;;;;;;;17.30;11.57;;;;;;;2.07;86.79;103925.44;6162723;23;20096;-77
2023/01/24 04:30:20;;;;;;;16.90;11.95;;;;;;;2.08;86.80;103924.38;6188309;23;20030;-78
2023/01/24 04:32:51;;;;;;;18.27;11.80;;;;;;;2.07;86.84;103922.03;6162344;23;20017;-78
2023/01/24 04:35:28;;;;;;;16.27;11.20;;;;;;;2.09;87.06;103927.78;6162592;23;20037;-78
2023/01/24 04:37:58;;;;;;;17.23;10.48;;;;;;;2.08;87.13;103923.59;6161746;23;20033;-78
2023/01/24 04:40:35;;;;;;;19.92;12.00;;;;;;;2.04;87.21;103931.31;6163087;23;20018;-78
2023/01/24 04:43:02;;;;;;;17.08;11.55;;;;;;;2.06;87.13;103931.00;6189141;23;20067;-77
2023/01/24 04:45:29;;;;;;;18.60;11.80;;;;;;;2.06;87.05;103934.41;6164585;23;20021;-77
2023/01/24 04:47:57;;;;;;;16.45;11.25;;;;;;;2.01;87.22;103927.44;6164056;23;20018;-78
2023/01/24 04:50:25;;;;;;;17.90;12.00;;;;;;;2.00;87.15;103925.09;6168838;23;20049;-77
2023/01/24 04:52:51;;;;;;;16.50;11.65;;;;;;;1.99;87.26;103937.50;6186604;23;20044;-78
2023/01/24 04:55:18;;;;;;;18.70;11.85;;;;;;;1.96;87.01;103935.47;6189083;23;20013;-78
2023/01/24 04:57:45;;;;;;;17.33;11.63;;;;;;;1.93;87.09;103930.81;6187385;23;20052;-77
2023/01/24 05:00:12;;;;;;;16.20;11.63;;;;;;;1.92;87.19;103936.38;6186374;23;20086;-78
2023/01/24 05:02:40;;;;;;;20.70;12.90;;;;;;;1.91;87.33;103938.22;6187236;23;20091;-77
2023/01/24 05:05:07;;;;;;;17.58;12.02;;;;;;;1.92;87.21;103934.53;6186802;23;20029;-77
2023/01/24 05:07:33;;;;;;;18.70;12.00;;;;;;;1.92;87.38;103933.75;6186977;23;20032;-77
2023/01/24 05:10:06;;;;;;;20.15;12.18;;;;;;;1.92;87.56;103936.38;6186595;23;20022;-77
2023/01/24 05:12:33;;;;;;;18.70;12.77;;;;;;;1.93;87.60;103943.19;6187300;23;20073;-76
2023/01/24 05:15:09;;;;;;;18.52;12.13;;;;;;;1.95;88.04;103943.66;6186778;23;20018;-76
2023/01/24 05:17:36;;;;;;;19.65;11.70;;;;;;;1.92;87.54;103933.75;6212072;23;20045;-76
2023/01/24 05:20:03;;;;;;;17.02;11.85;;;;;;;1.90;87.53;103943.78;6185408;23;20021;-77
2023/01/24 05:22:30;;;;;;;20.27;12.45;;;;;;;1.90;87.72;103943.78;6187457;23;20048;-76
2023/01/24 05:24:56;;;;;;;17.25;11.48;;;;;;;1.88;87.60;103940.69;6187031;23;20045;-77
2023/01/24 05:27:23;;;;;;;19.85;12.70;;;;;;;1.87;87.69;103944.38;6186883;23;20023;-76
2023/01/24 05:29:57;;;;;;;18.90;12.32;;;;;;;1.87;87.51;103947.00;6188778;23;20036;-77
2023/01/24 05:32:23;;;;;;;21.33;13.65;;;;;;;1.88;87.70;103943.31;6187072;23;20092;-77
2023/01/24 05:34:51;;;;;;;21.33;13.32;;;;;;;1.85;87.71;103957.03;6186183;23;20116;-76
2023/01/24 05:37:17;;;;;;;20.08;12.85;;;;;;;1.82;87.77;103952.38;6186645;23;20032;-76
2023/01/24 05:39:44;;;;;;;21.92;13.65;;;;;;;1.82;87.92;103952.38;6162416;23;20089;-77
2023/01/24 05:42:11;;;;;;;19.58;13.43;;;;;;;1.79;87.80;103950.38;6186203;23;20471;-77
2023/01/24 05:44:42;;;;;;;18.98;13.25;;;;;;;1.78;87.96;103954.06;6187324;23;20025;-77
2023/01/24 05:47:09;;;;;;;20.23;13.13;;;;;;;1.76;88.17;103956.22;6186529;23;20014;-76
2023/01/24 05:49:38;;;;;;;23.20;13.32;;;;;;;1.76;88.26;103958.84;6186067;23;20032;-77
2023/01/24 05:52:05;;;;;;;20.75;13.95;;;;;;;1.75;88.21;103959.91;6161315;23;20022;-77
2023/01/24 05:54:41;;;;;;;19.23;12.55;;;;;;;1.72;88.19;103963.91;6162001;23;20025;-77
2023/01/24 05:57:21;;;;;;;19.50;12.30;;;;;;;1.68;88.24;103960.34;6161582;23;20399;-77
2023/01/24 06:00:11;;;;;;;19.70;12.10;;;;;;;1.65;88.42;103953.06;6187532;23;20109;-78
2023/01/24 06:03:04;;;;;;;20.15;12.13;;;;;;;1.66;88.49;103958.00;6185924;23;20485;-79
2023/01/24 06:05:30;;;;;;;20.08;12.45;;;;;;;1.69;88.58;103959.25;6186061;23;20403;-76
2023/01/24 06:07:57;;;;;;;19.80;13.07;;;;;;;1.70;88.75;103955.56;6161453;23;20100;-79
2023/01/24 06:10:24;;;;;;;23.20;13.48;;;;;;;1.69;88.80;103956.63;6161718;23;20030;-78
2023/01/24 06:13:11;;;;;;;24.70;13.48;;;;;;;1.68;88.88;103955.88;6161050;23;20396;-78
2023/01/24 06:15:39;;;;;;;20.30;12.80;;;;;;;1.72;88.90;103955.25;6137375;23;20018;-76
2023/01/24 06:18:14;;;;;;;19.05;12.68;;;;;;;1.71;89.10;103965.00;6160799;23;20150;-77
2023/01/24 06:20:43;;;;;;;21.73;12.93;;;;;;;1.68;89.09;103961.13;6161634;23;20021;-77
2023/01/24 06:23:25;;;;;;;20.33;12.25;;;;;;;1.67;89.17;103962.19;6160941;23;20423;-76
2023/01/24 06:25:55;;;;;;;20.88;13.18;;;;;;;1.67;89.24;103966.66;6161635;23;20033;-77
2023/01/24 06:28:22;;;;;;;19.88;12.95;;;;;;;1.64;89.08;103960.16;6188013;23;20088;-77
2023/01/24 06:31:03;;;;;;;20.70;12.32;;;;;;;1.61;89.20;103963.38;6188076;23;20866;-77
2023/01/24 06:33:55;;;;;;;23.35;13.52;;;;;;;1.62;88.99;103964.16;6188962;23;20014;-77
2023/01/24 06:36:45;;;;;;;18.10;12.43;;;;;;;1.60;89.31;103967.09;6163332;23;20021;-77
2023/01/24 06:39:14;;;;;;;22.75;13.38;;;;;;;1.59;89.41;103973.44;6189379;23;20048;-77
2023/01/24 06:41:42;;;;;;;24.05;13.82;;;;;;;1.60;89.42;103966.34;6189878;23;20023;-77
2023/01/24 06:44:12;;;;;;;18.88;12.88;;;;;;;1.61;89.79;103971.25;6189193;23;20020;-77
2023/01/24 06:46:38;;;;;;;22.40;13.00;;;;;;;1.61;89.76;103981.00;6188121;23;20400;-77
2023/01/24 06:49:06;;;;;;;20.60;12.68;;;;;;;1.59;89.78;103983.94;6161305;23;20065;-77
2023/01/24 06:51:32;;;;;;;21.52;13.23;;;;;;;1.59;90.02;103981.31;6189511;23;20029;-76
2023/01/24 06:53:59;;;;;;;24.08;13.65;;;;;;;1.59;90.06;103977.91;6189569;23;20013;-77
2023/01/24 06:56:29;;;;;;;23.30;13.27;;;;;;;1.60;90.14;103985.47;6163376;23;20108;-77
2023/01/24 06:58:56;;;;;;;21.88;13.65;;;;;;;1.62;90.03;103990.41;6162505;23;20522;-78
2023/01/24 07:01:22;;;;;;;20.92;12.73;;;;;;;1.60;90.05;103988.09;6188514;23;20024;-77
2023/01/24 07:03:49;;;;;;;22.80;13.98;;;;;;;1.60;90.22;103985.47;6189303;23;20101;-77
2023/01/24 07:06:15;;;;;;;24.23;13.05;;;;;;;1.62;90.23;103985.94;6189229;23;20017;-77
2023/01/24 07:08:42;;;;;;;24.13;14.18;;;;;;;1.64;90.40;103985.66;6189698;23;20014;-76
2023/01/24 07:11:08;;;;;;;20.35;13.85;;;;;;;1.64;90.17;103981.16;6188892;23;20398;-77
2023/01/24 07:13:35;;;;;;;23.05;13.75;;;;;;;1.66;90.66;103988.75;6189640;23;20679;-77
2023/01/24 07:16:01;;;;;;;22.25;13.75;;;;;;;1.66;90.59;103988.75;6188462;23;20124;-76
2023/01/24 07:18:28;;;;;;;22.33;13.75;;;;;;;1.63;90.47;103991.97;6189374;23;20084;-77
2023/01/24 07:20:55;;;;;;;25.35;14.20;;;;;;;1.61;90.85;103992.28;6163080;23;20022;-78
2023/01/24 07:23:24;;;;;;;21.73;13.07;;;;;;;1.59;90.44;104006.81;6189276;23;20040;-77
2023/01/24 07:25:51;;;;;;;23.05;13.38;;;;;;;1.56;90.67;103994.25;6189326;23;20072;-77
2023/01/24 07:28:18;;;;;;;24.23;13.70;;;;;;;1.56;90.42;104005.53;6189287;23;20017;-79
2023/01/24 07:30:45;;;;;;;21.83;13.30;;;;;;;1.55;90.27;103998.75;6189178;23;20104;-78
2023/01/24 07:33:13;;;;;;;20.23;12.93;;;;;;;1.53;90.46;104000.88;6188784;23;20104;-79
2023/01/24 07:35:41;;;;;;;20.38;13.40;;;;;;;1.53;90.24;104006.13;6191720;23;20101;-78
2023/01/24 07:38:09;;;;;;;23.13;13.27;;;;;;;1.53;90.58;104011.38;6189040;23;20014;-80
2023/01/24 07:40:35;;;;;;;22.33;13.48;;;;;;;1.50;90.45;104009.34;6163323;23;20002;-79
2023/01/24 07:43:03;;;;;;;21.88;13.95;;;;;;;1.51;90.26;104008.28;6188022;23;20085;-78
2023/01/24 07:45:30;;;;;;;20.92;11.85;;;;;;;1.51;90.11;104023.25;6189720;23;20013;-79
2023/01/24 07:47:59;;;;;;;24.17;14.70;;;;;;;1.47;90.04;104023.06;6189724;23;20052;-81
2023/01/24 07:50:26;;;;;;;22.33;13.57;;;;;;;1.46;90.16;104026.78;6169234;23;20049;-80
2023/01/24 07:52:54;;;;;;;21.17;13.23;;;;;;;1.47;90.15;104024.94;6189971;23;20157;-81
2023/01/24 07:55:21;;;;;;;20.10;12.90;;;;;;;1.44;90.20;104031.53;6190492;23;20018;-80
2023/01/24 07:57:48;;;;;;;22.55;13.35;;;;;;;1.44;90.26;104030.75;6190190;23;20086;-83
2023/01/24 08:00:16;;;;;;;20.90;11.90;;;;;;;1.43;90.13;104026.59;6189468;23;20436;-81
2023/01/24 08:02:43;;;;;;;21.60;13.73;;;;;;;1.41;90.19;104029.50;6190299;23;20013;-78
2023/01/24 08:05:10;;;;;;;19.08;12.35;;;;;;;1.41;90.45;104026.09;6189931;23;20494;-78
2023/01/24 08:07:37;;;;;;;20.85;13.00;;;;;;;1.42;90.57;104025.81;6189595;23;20017;-79
2023/01/24 08:10:05;;;;;;;21.23;13.50;;;;;;;1.43;90.42;104029.22;6187948;23;20479;-79
2023/01/24 08:12:31;;;;;;;20.80;13.30;;;;;;;1.42;90.37;104028.44;6189998;23;20024;-80
2023/01/24 08:14:58;;;;;;;19.15;12.55;;;;;;;1.43;90.42;104029.22;6189219;23;20508;-80
2023/01/24 08:17:24;;;;;;;22.35;13.45;;;;;;;1.44;90.55;104036.78;6190302;23;20018;-78
2023/01/24 08:19:51;;;;;;;22.60;13.88;;;;;;;1.46;90.43;104033.88;6189796;23;20018;-77
2023/01/24 08:22:26;;;;;;;24.25;13.32;;;;;;;1.44;90.58;104034.16;6189131;23;20088;-78
2023/01/24 08:24:52;;;;;;;21.00;12.98;;;;;;;1.43;90.46;104040.50;6188413;23;20407;-77
2023/01/24 08:27:19;;;;;;;20.63;13.18;;;;;;;1.41;90.60;104034.75;6190261;23;20017;-77
2023/01/24 08:29:45;;;;;;;22.67;13.70;;;;;;;1.42;90.39;104035.53;6188021;23;20049;-77
2023/01/24 08:32:12;;;;;;;19.52;12.55;;;;;;;1.43;90.54;104042.34;6190045;23;20127;-78
2023/01/24 08:34:39;;;;;;;20.25;11.93;;;;;;;1.42;90.37;104038.16;6190580;23;20105;-77
2023/01/24 08:37:05;;;;;;;22.42;10.48;;;;;;;1.44;90.37;104039.41;6187625;23;20013;-78
2023/01/24 08:39:32;;;;;;;17.40;11.45;;;;;;;1.44;90.44;104042.03;6189939;23;20021;-78
2023/01/24 08:41:58;;;;;;;20.90;12.07;;;;;;;1.43;90.37;104045.75;6189527;23;20053;-76
2023/01/24 08:44:25;;;;;;;20.83;12.20;;;;;;;1.44;90.47;104051.78;6189651;23;20018;-76
2023/01/24 08:46:51;;;;;;;20.58;12.65;;;;;;;1.42;90.61;104059.94;6189857;23;20534;-82
2023/01/24 08:49:18;;;;;;;21.55;12.60;;;;;;;1.44;90.61;104057.81;6191236;23;20006;-90
2023/01/24 08:51:46;;;;;;;21.08;13.52;;;;;;;1.46;90.71;104057.50;6189819;23;20056;-75
2023/01/24 08:54:14;;;;;;;20.92;12.57;;;;;;;1.50;90.90;104061.09;6188780;23;20017;-77
2023/01/24 08:56:40;;;;;;;20.60;12.75;;;;;;;1.52;90.82;104064.97;6189585;23;20020;-78
2023/01/24 08:59:07;;;;;;;21.17;12.57;;;;;;;1.53;91.06;104065.75;6188787;23;20028;-80
2023/01/24 09:01:33;;;;;;;22.25;13.95;;;;;;;1.54;90.95;104064.69;6189912;23;20080;-78
2023/01/24 09:04:00;;;;;;;19.88;12.55;;;;;;;1.56;90.94;104073.81;6162640;23;20029;-83
2023/01/24 09:06:26;;;;;;;17.05;10.95;;;;;;;1.57;90.65;104069.34;6190001;23;20014;-79
2023/01/24 09:08:54;;;;;;;18.45;11.27;;;;;;;1.57;90.44;104067.50;6162780;23;20377;-75
2023/01/24 09:11:21;;;;;;;18.45;11.43;;;;;;;1.58;90.56;104065.66;6189172;23;20019;-77
2023/01/24 09:13:48;;;;;;;19.45;12.23;;;;;;;1.61;90.73;104063.19;6188794;23;20435;-80
2023/01/24 09:16:15;;;;;;;22.13;12.55;;;;;;;1.63;90.49;104057.63;6189327;23;20347;-79
2023/01/24 09:18:41;;;;;;;17.63;12.27;;;;;;;1.63;90.41;104073.38;6189315;23;20069;-79
2023/01/24 09:21:08;;;;;;;18.52;11.27;;;;;;;1.60;90.44;104074.00;6162743;23;20440;-77
2023/01/24 09:23:34;;;;;;;16.95;10.90;;;;;;;1.59;90.64;104081.09;6189393;23;20013;-78
2023/01/24 09:26:01;;;;;;;23.50;13.18;;;;;;;1.61;90.76;104076.31;6188898;23;20049;-79
2023/01/24 09:28:27;;;;;;;21.15;12.45;;;;;;;1.63;90.63;104079.41;6188749;23;20526;-79
2023/01/24 09:30:54;;;;;;;17.23;11.90;;;;;;;1.65;90.79;104077.28;6189110;23;20375;-79
2023/01/24 09:33:21;;;;;;;18.17;12.05;;;;;;;1.66;90.76;104080.69;6189421;23;20024;-76
2023/01/24 09:35:53;;;;;;;24.00;13.00;;;;;;;1.63;90.87;104089.91;6162871;23;20014;-80
2023/01/24 09:38:21;;;;;;;19.15;12.63;;;;;;;1.65;90.89;104079.91;6189161;23;20049;-77
2023/01/24 09:41:25;;;;;;;20.38;12.27;;;;;;;1.68;90.95;104087.19;6188655;23;20041;-77
2023/01/24 09:44:01;;;;;;;23.35;13.10;;;;;;;1.71;90.82;104087.66;6044222;23;20055;-78
2023/01/24 09:46:37;;;;;;;19.75;12.38;;;;;;;1.71;90.62;104088.44;6068737;23;20160;-77
2023/01/24 09:49:17;;;;;;;27.92;13.65;;;;;;;1.75;90.69;104092.03;6068146;23;20027;-77
2023/01/24 09:51:48;;;;;;;20.15;12.32;;;;;;;1.79;90.85;104100.09;6121092;23;20019;-78
2023/01/24 09:54:27;;;;;;;20.75;12.38;;;;;;;1.81;90.93;104093.47;6126693;23;20018;-78
2023/01/24 09:56:55;;;;;;;23.20;12.57;;;;;;;1.85;90.87;104091.03;6126060;23;20018;-77
2023/01/24 09:59:37;;;;;;;21.08;11.85;;;;;;;1.79;90.74;104093.00;6126643;23;20027;-78
2023/01/24 10:02:16;;;;;;;22.90;13.10;;;;;;;1.77;90.80;104094.38;6126403;23;20029;-80
2023/01/24 10:04:45;;;;;;;89.53;47.47;;;;;;;1.78;90.79;104091.44;6126405;23;20090;-77
2023/01/24 10:07:31;;;;;;;34.80;18.80;;;;;;;1.85;90.92;104091.81;6126042;23;20018;-77
2023/01/24 10:10:10;;;;;;;19.27;12.02;;;;;;;1.80;90.44;104086.66;6127029;23;20361;-78
2023/01/24 10:12:59;;;;;;;18.80;11.23;;;;;;;1.84;90.86;104092.09;6128166;23;20077;-77
2023/01/24 10:15:38;;;;;;;20.65;11.88;;;;;;;1.87;90.67;104096.78;6128119;23;20437;-77
2023/01/24 10:18:44;;;;;;;24.58;12.10;;;;;;;1.91;90.68;104093.25;6127732;23;20028;-77
2023/01/24 10:21:25;;;;;;;18.70;11.70;;;;;;;1.95;90.85;104085.56;6108715;23;20445;-78
2023/01/24 10:24:16;;;;;;;17.65;11.77;;;;;;;1.97;90.63;104086.03;6127746;23;20433;-76
2023/01/24 10:26:51;;;;;;;18.08;11.90;;;;;;;1.97;90.50;104088.66;6128278;23;20445;-77
2023/01/24 10:29:24;;;;;;;19.17;11.15;;;;;;;1.96;90.66;104100.25;6128217;23;20111;-77
2023/01/24 10:32:04;;;;;;;23.05;12.02;;;;;;;1.96;90.38;104093.13;6103273;23;20033;-77
2023/01/24 10:34:40;;;;;;;18.90;12.23;;;;;;;1.97;90.24;104093.91;6128005;23;20022;-77
2023/01/24 10:37:10;;;;;;;17.60;11.13;;;;;;;2.01;90.01;104087.75;6127588;23;20018;-77
2023/01/24 10:39:37;;;;;;;17.02;11.02;;;;;;;2.00;89.71;104086.19;6127360;23;20033;-78
2023/01/24 10:42:26;;;;;;;18.27;11.45;;;;;;;1.93;89.71;104085.84;6127755;23;20082;-77
2023/01/24 10:44:59;;;;;;;20.63;10.95;;;;;;;1.92;89.62;104083.53;6128611;23;20018;-77
2023/01/24 10:47:50;;;;;;;17.02;10.90;;;;;;;1.91;89.70;104081.97;6128208;23;20077;-77
2023/01/24 10:50:18;;;;;;;15.73;10.35;;;;;;;1.92;89.31;104088.78;6093537;23;20095;-78
2023/01/24 10:52:48;;;;;;;17.52;10.88;;;;;;;1.93;89.41;104082.44;6098684;23;20027;-78
2023/01/24 10:55:29;;;;;;;21.00;11.65;;;;;;;1.96;89.17;104074.75;6098192;23;20019;-78
2023/01/24 10:57:56;;;;;;;20.75;10.95;;;;;;;2.00;88.75;104069.63;6153462;23;20048;-78
2023/01/24 11:00:34;;;;;;;14.40;10.25;;;;;;;1.97;88.80;104070.25;6190329;23;20013;-77
2023/01/24 11:03:17;;;;;;;16.83;10.55;;;;;;;2.01;88.78;104068.56;6190223;23;20022;-76
2023/01/24 11:05:52;;;;;;;15.68;10.52;;;;;;;2.04;88.70;104065.34;6190067;23;20021;-78
2023/01/24 11:08:23;;;;;;;17.83;11.18;;;;;;;2.09;88.74;104059.97;6163023;23;20017;-77
2023/01/24 11:10:58;;;;;;;16.67;10.20;;;;;;;2.13;88.59;104063.53;6190701;23;20436;-78
2023/01/24 11:13:40;;;;;;;15.52;9.65;;;;;;;2.11;88.45;104057.81;6190281;23;20491;-80
2023/01/24 11:16:16;;;;;;;15.43;9.55;;;;;;;2.07;88.13;104059.50;6138599;23;20051;-80
2023/01/24 11:19:03;;;;;;;16.20;10.18;;;;;;;2.08;88.46;104061.03;6163413;23;20448;-80
2023/01/24 11:21:32;;;;;;;14.90;9.40;;;;;;;2.09;87.90;104056.56;6139817;23;20428;-81
2023/01/24 11:24:05;;;;;;;15.25;10.60;;;;;;;2.10;87.84;104058.13;6189208;23;20511;-80
2023/01/24 11:26:36;;;;;;;15.48;10.15;;;;;;;2.15;87.94;104047.47;6189913;23;20481;-82
2023/01/24 11:29:24;;;;;;;17.77;9.60;;;;;;;2.13;87.71;104041.75;6189994;23;20014;-79
2023/01/24 11:31:55;;;;;;;14.50;10.50;;;;;;;2.10;87.42;104040.50;6189857;23;20423;-79
2023/01/24 11:34:40;;;;;;;18.35;10.43;;;;;;;2.08;87.59;104040.00;6190025;23;20041;-80
2023/01/24 11:37:35;;;;;;;18.33;10.88;;;;;;;2.09;87.79;104036.31;6162635;23;20411;-79
2023/01/24 11:40:30;;;;;;;14.95;9.80;;;;;;;2.07;87.90;104035.84;6189781;23;20023;-81
2023/01/24 11:43:29;;;;;;;14.90;9.52;;;;;;;2.09;87.76;104033.69;6189713;23;20025;-79
2023/01/24 11:46:04;;;;;;;15.85;10.75;;;;;;;2.10;87.56;104037.09;6189699;23;20097;-79
2023/01/24 11:49:12;;;;;;;15.98;10.80;;;;;;;2.12;87.49;104037.56;6190105;23;20522;-79
2023/01/24 11:52:18;;;;;;;16.40;9.63;;;;;;;2.09;87.32;104033.69;6189104;23;20391;-79
2023/01/24 11:55:13;;;;;;;15.32;10.70;;;;;;;2.10;87.51;104027.34;6190156;23;20076;-78
2023/01/24 11:58:05;;;;;;;17.85;10.60;;;;;;;2.16;87.62;104023.53;6163814;23;20096;-77
2023/01/24 12:00:54;;;;;;;18.50;11.45;;;;;;;2.20;87.22;104018.44;6190075;23;20017;-77
2023/01/24 12:03:52;;;;;;;16.35;10.63;;;;;;;2.25;87.50;104020.94;6190159;23;20045;-77
2023/01/24 12:06:25;;;;;;;17.55;10.25;;;;;;;2.27;87.11;104011.69;6189163;23;20021;-77
2023/01/24 12:09:06;;;;;;;17.65;11.35;;;;;;;2.25;87.11;104007.78;6189839;23;20017;-77
2023/01/24 12:12:17;;;;;;;15.48;10.38;;;;;;;2.26;87.03;104004.88;6164113;23;20018;-78
2023/01/24 12:14:46;;;;;;;18.65;12.00;;;;;;;2.29;86.72;104000.84;6189426;23;20068;-77
2023/01/24 12:17:22;;;;;;;18.55;11.23;;;;;;;2.34;86.61;103996.25;6189972;23;20040;-77